sensor_id;sensor_type;location;lat;lon;timestamp;pressure;altitude;pressure_sealevel;temperature;humidity
74437;BME280;62868;52.360;30.424;2024-03-02T00:04:44;1034.4;;;3.4;63.4
74437;BME280;62868;52.360;30.424;2024-03-02T00:09:32;1034.4;;;3.3;63.4
74437;BME280;62868;52.360;30.424;2024-03-02T00:14:40;1034.4;;;3.2;63.5
74437;BME280;62868;52.360;30.424;2024-03-02T00:19:52;1034.4;;;3.2;63.4
74437;BME280;62868;52.360;30.424;2024-03-02T00:24:44;1034.4;;;3.1;63.5
74437;BME280;62868;52.360;30.424;2024-03-02T00:29:36;1034.4;;;3.1;63.4
74437;BME280;62868;52.360;30.424;2024-03-02T00:34:54;1034.3;;;3.1;63.4
74437;BME280;62868;52.360;30.424;2024-03-02T00:39:52;1034.3;;;3.1;63.3
74437;BME280;62868;52.360;30.424;2024-03-02T00:44:44;1034.3;;;3.1;63.4
74437;BME280;62868;52.360;30.424;2024-03-02T00:49:26;1034.3;;;3.2;63.4
74437;BME280;62868;52.360;30.424;2024-03-02T00:54:21;1034.3;;;3.2;63.3
74437;BME280;62868;52.360;30.424;2024-03-02T00:59:26;1034.3;;;3.1;63.4
74437;BME280;62868;52.360;30.424;2024-03-02T01:04:26;1034.3;;;3.1;63.4
74437;BME280;62868;52.360;30.424;2024-03-02T01:09:26;1034.3;;;3.1;63.4
74437;BME280;62868;52.360;30.424;2024-03-02T01:14:26;1034.3;;;3.1;63.4
74437;BME280;62868;52.360;30.424;2024-03-02T01:19:41;1034.2;;;3;63.5
74437;BME280;62868;52.360;30.424;2024-03-02T01:24:32;1034.2;;;3;63.5
74437;BME280;62868;52.360;30.424;2024-03-02T01:29:52;1034.2;;;2.9;63.5
74437;BME280;62868;52.360;30.424;2024-03-02T01:34:44;1034.2;;;2.9;63.6
74437;BME280;62868;52.360;30.424;2024-03-02T01:39:40;1034.1;;;2.9;63.6
74437;BME280;62868;52.360;30.424;2024-03-02T01:44:20;1034.2;;;2.8;63.7
74437;BME280;62868;52.360;30.424;2024-03-02T01:49:40;1034.1;;;2.8;63.7
74437;BME280;62868;52.360;30.424;2024-03-02T01:54:44;1034.1;;;2.8;63.7
74437;BME280;62868;52.360;30.424;2024-03-02T01:59:32;1034.1;;;2.7;63.7
74437;BME280;62868;52.360;30.424;2024-03-02T02:04:30;1034.1;;;2.7;63.7
74437;BME280;62868;52.360;30.424;2024-03-02T02:09:44;1034.2;;;2.7;63.8
74437;BME280;62868;52.360;30.424;2024-03-02T02:14:46;1034.2;;;2.7;63.7
74437;BME280;62868;52.360;30.424;2024-03-02T02:19:34;1034.3;;;2.7;63.7
74437;BME280;62868;52.360;30.424;2024-03-02T02:24:44;1034.2;;;2.6;63.8
74437;BME280;62868;52.360;30.424;2024-03-02T02:29:26;1034.2;;;2.7;63.8
74437;BME280;62868;52.360;30.424;2024-03-02T02:34:26;1034.1;;;2.7;63.8
74437;BME280;62868;52.360;30.424;2024-03-02T02:39:34;1034.2;;;2.7;63.8
74437;BME280;62868;52.360;30.424;2024-03-02T02:44:20;1034.2;;;2.7;63.8
74437;BME280;62868;52.360;30.424;2024-03-02T02:49:44;1034.2;;;2.7;63.7
74437;BME280;62868;52.360;30.424;2024-03-02T02:54:40;1034.2;;;2.8;63.7
74437;BME280;62868;52.360;30.424;2024-03-02T02:59:26;1034.1;;;2.8;63.7
74437;BME280;62868;52.360;30.424;2024-03-02T03:04:34;1034.2;;;2.8;63.7
74437;BME280;62868;52.360;30.424;2024-03-02T03:09:44;1034.2;;;2.8;63.8
74437;BME280;62868;52.360;30.424;2024-03-02T03:14:37;1034.2;;;2.7;63.7
74437;BME280;62868;52.360;30.424;2024-03-02T03:19:32;1034.2;;;2.8;63.7
74437;BME280;62868;52.360;30.424;2024-03-02T03:24:22;1034.2;;;2.8;63.8
74437;BME280;62868;52.360;30.424;2024-03-02T03:29:44;1034.2;;;2.8;63.8
74437;BME280;62868;52.360;30.424;2024-03-02T03:34:20;1034.2;;;2.7;63.9
74437;BME280;62868;52.360;30.424;2024-03-02T03:39:20;1034.2;;;2.7;63.9
74437;BME280;62868;52.360;30.424;2024-03-02T03:44:44;1034.3;;;2.6;64
74437;BME280;62868;52.360;30.424;2024-03-02T03:49:46;1034.2;;;2.5;64.1
74437;BME280;62868;52.360;30.424;2024-03-02T03:54:28;1034.2;;;2.5;64
74437;BME280;62868;52.360;30.424;2024-03-02T03:59:44;1034.1;;;2.5;64
74437;BME280;62868;52.360;30.424;2024-03-02T04:04:20;1034.1;;;2.4;64
74437;BME280;62868;52.360;30.424;2024-03-02T04:09:26;1034.1;;;2.4;64
74437;BME280;62868;52.360;30.424;2024-03-02T04:14:36;1034.1;;;2.5;64
74437;BME280;62868;52.360;30.424;2024-03-02T04:19:20;1034.1;;;2.5;64
74437;BME280;62868;52.360;30.424;2024-03-02T04:24:26;1034;;;2.6;63.9
74437;BME280;62868;52.360;30.424;2024-03-02T04:29:52;1034.1;;;2.6;63.9
74437;BME280;62868;52.360;30.424;2024-03-02T04:34:38;1034.2;;;2.6;64
74437;BME280;62868;52.360;30.424;2024-03-02T04:39:46;1034.2;;;2.7;63.9
74437;BME280;62868;52.360;30.424;2024-03-02T04:44:52;1034.2;;;2.7;63.9
74437;BME280;62868;52.360;30.424;2024-03-02T04:49:26;1034.2;;;2.7;64
74437;BME280;62868;52.360;30.424;2024-03-02T04:54:54;1034.3;;;2.7;64
74437;BME280;62868;52.360;30.424;2024-03-02T04:59:52;1034.2;;;2.7;64
74437;BME280;62868;52.360;30.424;2024-03-02T05:04:44;1034.2;;;2.8;64
74437;BME280;62868;52.360;30.424;2024-03-02T05:09:32;1034.1;;;2.8;64
74437;BME280;62868;52.360;30.424;2024-03-02T05:14:40;1034.2;;;2.9;64
74437;BME280;62868;52.360;30.424;2024-03-02T05:19:45;1034.2;;;3;63.9
74437;BME280;62868;52.360;30.424;2024-03-02T05:24:52;1034.1;;;3.2;63.9
74437;BME280;62868;52.360;30.424;2024-03-02T05:29:37;1034.1;;;3.3;63.9
74437;BME280;62868;52.360;30.424;2024-03-02T05:34:53;1034.1;;;3.5;63.8
74437;BME280;62868;52.360;30.424;2024-03-02T05:39:20;1034;;;3.8;63.6
74437;BME280;62868;52.360;30.424;2024-03-02T05:44:27;1034.1;;;4;63.6
74437;BME280;62868;52.360;30.424;2024-03-02T05:49:27;1034;;;4.1;63.5
74437;BME280;62868;52.360;30.424;2024-03-02T05:54:21;1034;;;4.3;63.4
74437;BME280;62868;52.360;30.424;2024-03-02T05:59:31;1034.1;;;4.4;63.3
74437;BME280;62868;52.360;30.424;2024-03-02T06:04:29;1034.1;;;4.6;63.1
74437;BME280;62868;52.360;30.424;2024-03-02T06:09:23;1034.1;;;4.9;62.9
74437;BME280;62868;52.360;30.424;2024-03-02T06:14:21;1034;;;5;62.8
74437;BME280;62868;52.360;30.424;2024-03-02T06:19:53;1034;;;5.1;62.6
74437;BME280;62868;52.360;30.424;2024-03-02T06:24:27;1034;;;5.2;62.6
74437;BME280;62868;52.360;30.424;2024-03-02T06:29:43;1034;;;5.2;62.6
74437;BME280;62868;52.360;30.424;2024-03-02T06:34:29;1034;;;5.4;62.4
74437;BME280;62868;52.360;30.424;2024-03-02T06:39:47;1034;;;5.8;62
74437;BME280;62868;52.360;30.424;2024-03-02T06:44:27;1034.1;;;6.1;61.8
74437;BME280;62868;52.360;30.424;2024-03-02T06:49:55;1034.1;;;6.4;61.5
74437;BME280;62868;52.360;30.424;2024-03-02T06:54:19;1034.1;;;6.5;61.3
74437;BME280;62868;52.360;30.424;2024-03-02T06:59:55;1034.1;;;6.7;60.9
74437;BME280;62868;52.360;30.424;2024-03-02T07:04:29;1034.1;;;6.9;60.6
74437;BME280;62868;52.360;30.424;2024-03-02T07:09:53;1034.1;;;7.1;60.4
74437;BME280;62868;52.360;30.424;2024-03-02T07:14:39;1034.1;;;7.3;60
74437;BME280;62868;52.360;30.424;2024-03-02T07:19:21;1034;;;7.5;59.6
74437;BME280;62868;52.360;30.424;2024-03-02T07:24:29;1034;;;7.7;59.3
74437;BME280;62868;52.360;30.424;2024-03-02T07:29:21;1034;;;7.9;59
74437;BME280;62868;52.360;30.424;2024-03-02T07:34:21;1034;;;8.2;58.6
74437;BME280;62868;52.360;30.424;2024-03-02T07:39:29;1034;;;8.3;58
74437;BME280;62868;52.360;30.424;2024-03-02T07:44:45;1034;;;8.3;57.8
74437;BME280;62868;52.360;30.424;2024-03-02T07:49:35;1034;;;8.5;57.4
74437;BME280;62868;52.360;30.424;2024-03-02T07:54:55;1034;;;8.7;57
74437;BME280;62868;52.360;30.424;2024-03-02T07:59:35;1034;;;8.8;56.5
74437;BME280;62868;52.360;30.424;2024-03-02T08:04:55;1034;;;9;56.2
74437;BME280;62868;52.360;30.424;2024-03-02T08:09:35;1034;;;9.2;55.9
74437;BME280;62868;52.360;30.424;2024-03-02T08:14:47;1033.9;;;9.2;55.4
74437;BME280;62868;52.360;30.424;2024-03-02T08:19:35;1033.9;;;9.3;55
74437;BME280;62868;52.360;30.424;2024-03-02T08:24:43;1033.9;;;9.4;54.8
74437;BME280;62868;52.360;30.424;2024-03-02T08:29:55;1033.9;;;9.5;54.6
74437;BME280;62868;52.360;30.424;2024-03-02T08:34:47;1033.8;;;9.6;54.1
74437;BME280;62868;52.360;30.424;2024-03-02T08:39:21;1033.8;;;9.6;53.7
74437;BME280;62868;52.360;30.424;2024-03-02T08:44:55;1033.8;;;9.6;53.5
74437;BME280;62868;52.360;30.424;2024-03-02T08:49:55;1033.7;;;9.7;53
74437;BME280;62868;52.360;30.424;2024-03-02T08:54:45;1033.7;;;9.7;52.5
74437;BME280;62868;52.360;30.424;2024-03-02T08:59:53;1033.7;;;10;52.4
74437;BME280;62868;52.360;30.424;2024-03-02T09:04:33;1033.6;;;10.1;52
74437;BME280;62868;52.360;30.424;2024-03-02T09:09:33;1033.6;;;10.3;51.8
74437;BME280;62868;52.360;30.424;2024-03-02T09:14:21;1033.5;;;10.4;51.3
74437;BME280;62868;52.360;30.424;2024-03-02T09:19:21;1033.5;;;10.5;51.2
74437;BME280;62868;52.360;30.424;2024-03-02T09:24:33;1033.5;;;10.7;51.1
74437;BME280;62868;52.360;30.424;2024-03-02T09:29:43;1033.5;;;10.9;50.8
74437;BME280;62868;52.360;30.424;2024-03-02T09:34:33;1033.4;;;11.3;50.3
74437;BME280;62868;52.360;30.424;2024-03-02T09:39:55;1033.4;;;11.4;49.9
74437;BME280;62868;52.360;30.424;2024-03-02T09:44:45;1033.3;;;11.4;49.5
74437;BME280;62868;52.360;30.424;2024-03-02T09:49:55;1033.2;;;11.4;49.2
74437;BME280;62868;52.360;30.424;2024-03-02T09:54:21;1033.2;;;11.5;48.9
74437;BME280;62868;52.360;30.424;2024-03-02T09:59:23;1033.2;;;11.5;48.5
74437;BME280;62868;52.360;30.424;2024-03-02T10:04:39;1033.2;;;11.5;48.1
74437;BME280;62868;52.360;30.424;2024-03-02T10:09:26;1033.2;;;11.6;47.9
74437;BME280;62868;52.360;30.424;2024-03-02T10:14:37;1033.1;;;11.7;47.7
74437;BME280;62868;52.360;30.424;2024-03-02T10:19:45;1033.1;;;12.1;47.4
74437;BME280;62868;52.360;30.424;2024-03-02T10:24:55;1033.1;;;12.1;46.7
74437;BME280;62868;52.360;30.424;2024-03-02T10:29:38;1033.1;;;12;45.7
74437;BME280;62868;52.360;30.424;2024-03-02T10:34:47;1033;;;11.9;45.4
74437;BME280;62868;52.360;30.424;2024-03-02T10:39:34;1033;;;12;45
74437;BME280;62868;52.360;30.424;2024-03-02T10:44:55;1033;;;12;44.5
74437;BME280;62868;52.360;30.424;2024-03-02T10:49:21;1032.9;;;12.1;44.3
74437;BME280;62868;52.360;30.424;2024-03-02T10:54:21;1032.8;;;12.4;44.2
74437;BME280;62868;52.360;30.424;2024-03-02T10:59:49;1032.8;;;12.4;43.7
74437;BME280;62868;52.360;30.424;2024-03-02T11:04:55;1032.8;;;12.4;43.5
74437;BME280;62868;52.360;30.424;2024-03-02T11:09:47;1032.7;;;12.4;43.3
74437;BME280;62868;52.360;30.424;2024-03-02T11:14:55;1032.7;;;12.6;43.1
74437;BME280;62868;52.360;30.424;2024-03-02T11:19:45;1032.6;;;12.6;43.1
74437;BME280;62868;52.360;30.424;2024-03-02T11:24:47;1032.5;;;12.7;42.9
74437;BME280;62868;52.360;30.424;2024-03-02T11:29:42;1032.5;;;12.6;42.5
74437;BME280;62868;52.360;30.424;2024-03-02T11:34:44;1032.5;;;12.7;42.3
74437;BME280;62868;52.360;30.424;2024-03-02T11:39:45;1032.5;;;12.6;42.1
74437;BME280;62868;52.360;30.424;2024-03-02T11:44:21;1032.5;;;12.6;42.1
74437;BME280;62868;52.360;30.424;2024-03-02T11:49:37;1032.5;;;12.6;42
74437;BME280;62868;52.360;30.424;2024-03-02T11:54:43;1032.5;;;12.6;41.9
74437;BME280;62868;52.360;30.424;2024-03-02T11:59:51;1032.4;;;12.5;41.8
74437;BME280;62868;52.360;30.424;2024-03-02T12:04:37;1032.4;;;12.5;41.6
74437;BME280;62868;52.360;30.424;2024-03-02T12:09:45;1032.4;;;12.3;41.4
74437;BME280;62868;52.360;30.424;2024-03-02T12:14:21;1032.3;;;12.3;41.4
74437;BME280;62868;52.360;30.424;2024-03-02T12:19:27;1032.3;;;12.1;41.1
74437;BME280;62868;52.360;30.424;2024-03-02T12:24:27;1032.3;;;12.1;41.2
74437;BME280;62868;52.360;30.424;2024-03-02T12:29:27;1032.2;;;12.2;41.1
74437;BME280;62868;52.360;30.424;2024-03-02T12:34:21;1032.2;;;12.2;41.3
74437;BME280;62868;52.360;30.424;2024-03-02T12:39:51;1032.2;;;12.2;41.3
74437;BME280;62868;52.360;30.424;2024-03-02T12:44:43;1032.2;;;12.2;41.3
74437;BME280;62868;52.360;30.424;2024-03-02T12:49:51;1032.2;;;12;41.4
74437;BME280;62868;52.360;30.424;2024-03-02T12:54:47;1032.3;;;11.9;41.6
74437;BME280;62868;52.360;30.424;2024-03-02T12:59:39;1032.3;;;11.9;41.5
74437;BME280;62868;52.360;30.424;2024-03-02T13:04:52;1032.3;;;11.8;41.5
74437;BME280;62868;52.360;30.424;2024-03-02T13:09:53;1032.3;;;11.7;41.3
74437;BME280;62868;52.360;30.424;2024-03-02T13:14:48;1032.3;;;11.7;41.3
74437;BME280;62868;52.360;30.424;2024-03-02T13:19:35;1032.3;;;11.5;41.1
74437;BME280;62868;52.360;30.424;2024-03-02T13:24:41;1032.3;;;11.5;41.1
74437;BME280;62868;52.360;30.424;2024-03-02T13:29:43;1032.3;;;11.4;41.2
74437;BME280;62868;52.360;30.424;2024-03-02T13:34:53;1032.3;;;11.3;41
74437;BME280;62868;52.360;30.424;2024-03-02T13:39:37;1032.2;;;11.3;41.1
74437;BME280;62868;52.360;30.424;2024-03-02T13:44:53;1032.2;;;11.3;41.3
74437;BME280;62868;52.360;30.424;2024-03-02T13:49:23;1032.1;;;11.3;41.4
74437;BME280;62868;52.360;30.424;2024-03-02T13:54:21;1032.1;;;11.1;41.3
74437;BME280;62868;52.360;30.424;2024-03-02T13:59:27;1032.1;;;11.1;41.5
74437;BME280;62868;52.360;30.424;2024-03-02T14:04:43;1032;;;11;41.6
74437;BME280;62868;52.360;30.424;2024-03-02T14:09:21;1032.1;;;11;41.8
74437;BME280;62868;52.360;30.424;2024-03-02T14:14:21;1032;;;10.8;41.9
74437;BME280;62868;52.360;30.424;2024-03-02T14:19:23;1032;;;10.7;42.1
74437;BME280;62868;52.360;30.424;2024-03-02T14:24:21;1032;;;10.6;42.3
74437;BME280;62868;52.360;30.424;2024-03-02T14:29:51;1032;;;10.5;42.4
74437;BME280;62868;52.360;30.424;2024-03-02T14:34:31;1032.1;;;10.4;42.5
74437;BME280;62868;52.360;30.424;2024-03-02T14:39:51;1032;;;10.3;42.7
74437;BME280;62868;52.360;30.424;2024-03-02T14:44:21;1032;;;10.1;42.7
74437;BME280;62868;52.360;30.424;2024-03-02T14:49:45;1032;;;10;42.8
74437;BME280;62868;52.360;30.424;2024-03-02T14:54:27;1032;;;10;42.9
74437;BME280;62868;52.360;30.424;2024-03-02T14:59:45;1032;;;9.8;43
74437;BME280;62868;52.360;30.424;2024-03-02T15:04:51;1032;;;9.7;43.2
74437;BME280;62868;52.360;30.424;2024-03-02T15:09:45;1031.9;;;9.6;43.3
74437;BME280;62868;52.360;30.424;2024-03-02T15:14:37;1031.9;;;9.5;43.6
74437;BME280;62868;52.360;30.424;2024-03-02T15:24:51;1031.9;;;9.2;43.9
74437;BME280;62868;52.360;30.424;2024-03-02T15:29:43;1031.9;;;9.1;44.1
74437;BME280;62868;52.360;30.424;2024-03-02T15:34:31;1031.9;;;9;44.3
74437;BME280;62868;52.360;30.424;2024-03-02T15:39:29;1032;;;8.8;44.7
74437;BME280;62868;52.360;30.424;2024-03-02T15:44:33;1032;;;8.6;45
74437;BME280;62868;52.360;30.424;2024-03-02T15:49:21;1032;;;8.4;45.4
74437;BME280;62868;52.360;30.424;2024-03-02T15:54:43;1032.1;;;8.2;45.8
74437;BME280;62868;52.360;30.424;2024-03-02T15:59:31;1032.2;;;8;46.1
74437;BME280;62868;52.360;30.424;2024-03-02T16:04:51;1032.2;;;7.9;46.4
74437;BME280;62868;52.360;30.424;2024-03-02T16:09:27;1032.2;;;7.8;46.6
74437;BME280;62868;52.360;30.424;2024-03-02T16:14:51;1032.2;;;7.7;46.9
74437;BME280;62868;52.360;30.424;2024-03-02T16:19:51;1032.3;;;7.5;47.1
74437;BME280;62868;52.360;30.424;2024-03-02T16:29:33;1032.3;;;7.3;47.6
74437;BME280;62868;52.360;30.424;2024-03-02T16:34:51;1032.3;;;7.2;47.9
74437;BME280;62868;52.360;30.424;2024-03-02T16:39:51;1032.3;;;7;48.2
74437;BME280;62868;52.360;30.424;2024-03-02T16:44:45;1032.2;;;7;48.4
74437;BME280;62868;52.360;30.424;2024-03-02T16:49:31;1032.3;;;6.9;48.6
74437;BME280;62868;52.360;30.424;2024-03-02T16:54:52;1032.3;;;6.8;48.6
74437;BME280;62868;52.360;30.424;2024-03-02T16:59:45;1032.3;;;6.7;48.8
74437;BME280;62868;52.360;30.424;2024-03-02T17:04:43;1032.3;;;6.7;48.8
74437;BME280;62868;52.360;30.424;2024-03-02T17:09:45;1032.3;;;6.6;49
74437;BME280;62868;52.360;30.424;2024-03-02T17:14:21;1032.3;;;6.5;49.1
74437;BME280;62868;52.360;30.424;2024-03-02T17:19:21;1032.3;;;6.4;49.2
74437;BME280;62868;52.360;30.424;2024-03-02T17:24:21;1032.4;;;6.3;49.3
74437;BME280;62868;52.360;30.424;2024-03-02T17:29:21;1032.4;;;6.2;49.5
74437;BME280;62868;52.360;30.424;2024-03-02T17:34:31;1032.4;;;6.1;49.6
74437;BME280;62868;52.360;30.424;2024-03-02T17:39:37;1032.4;;;6.1;49.6
74437;BME280;62868;52.360;30.424;2024-03-02T17:44:31;1032.4;;;6.1;49.7
74437;BME280;62868;52.360;30.424;2024-03-02T17:49:49;1032.4;;;6;49.8
74437;BME280;62868;52.360;30.424;2024-03-02T17:54:47;1032.4;;;6;49.8
74437;BME280;62868;52.360;30.424;2024-03-02T17:59:45;1032.5;;;5.9;49.9
74437;BME280;62868;52.360;30.424;2024-03-02T18:04:35;1032.5;;;5.9;49.9
74437;BME280;62868;52.360;30.424;2024-03-02T18:09:46;1032.5;;;5.8;50
74437;BME280;62868;52.360;30.424;2024-03-02T18:14:47;1032.6;;;5.8;50
74437;BME280;62868;52.360;30.424;2024-03-02T18:19:35;1032.6;;;5.7;49.9
74437;BME280;62868;52.360;30.424;2024-03-02T18:24:21;1032.6;;;5.7;49.9
74437;BME280;62868;52.360;30.424;2024-03-02T18:29:47;1032.6;;;5.6;49.9
74437;BME280;62868;52.360;30.424;2024-03-02T18:34:55;1032.6;;;5.5;49.9
74437;BME280;62868;52.360;30.424;2024-03-02T18:39:39;1032.6;;;5.4;49.9
74437;BME280;62868;52.360;30.424;2024-03-02T18:44:47;1032.6;;;5.3;49.9
74437;BME280;62868;52.360;30.424;2024-03-02T18:49:21;1032.6;;;5.3;50
74437;BME280;62868;52.360;30.424;2024-03-02T18:54:28;1032.6;;;5.2;50
74437;BME280;62868;52.360;30.424;2024-03-02T18:59:29;1032.6;;;5.1;50.1
74437;BME280;62868;52.360;30.424;2024-03-02T19:04:21;1032.6;;;5;50.2
74437;BME280;62868;52.360;30.424;2024-03-02T19:09:39;1032.6;;;5;50.2
74437;BME280;62868;52.360;30.424;2024-03-02T19:14:57;1032.5;;;4.9;50.2
74437;BME280;62868;52.360;30.424;2024-03-02T19:19:49;1032.5;;;4.8;50.3
74437;BME280;62868;52.360;30.424;2024-03-02T19:24:58;1032.5;;;4.7;50.3
74437;BME280;62868;52.360;30.424;2024-03-02T19:29:57;1032.5;;;4.7;50.4
74437;BME280;62868;52.360;30.424;2024-03-02T19:34:49;1032.4;;;4.6;50.5
74437;BME280;62868;52.360;30.424;2024-03-02T19:39:59;1032.4;;;4.6;50.5
74437;BME280;62868;52.360;30.424;2024-03-02T19:44:59;1032.4;;;4.5;50.6
74437;BME280;62868;52.360;30.424;2024-03-02T19:49:49;1032.4;;;4.4;50.7
74437;BME280;62868;52.360;30.424;2024-03-02T19:54:27;1032.5;;;4.4;50.8
74437;BME280;62868;52.360;30.424;2024-03-02T19:59:45;1032.5;;;4.3;50.8
74437;BME280;62868;52.360;30.424;2024-03-02T20:04:49;1032.5;;;4.2;51
74437;BME280;62868;52.360;30.424;2024-03-02T20:09:59;1032.4;;;4.1;51.1
74437;BME280;62868;52.360;30.424;2024-03-02T20:14:39;1032.4;;;4.1;51.2
74437;BME280;62868;52.360;30.424;2024-03-02T20:19:49;1032.4;;;4;51.3
74437;BME280;62868;52.360;30.424;2024-03-02T20:24:33;1032.4;;;3.9;51.4
74437;BME280;62868;52.360;30.424;2024-03-02T20:29:27;1032.4;;;3.9;51.5
74437;BME280;62868;52.360;30.424;2024-03-02T20:34:33;1032.4;;;3.8;51.6
74437;BME280;62868;52.360;30.424;2024-03-02T20:39:21;1032.4;;;3.8;51.7
74437;BME280;62868;52.360;30.424;2024-03-02T20:44:49;1032.4;;;3.7;51.7
74437;BME280;62868;52.360;30.424;2024-03-02T20:49:59;1032.4;;;3.7;51.8
74437;BME280;62868;52.360;30.424;2024-03-02T20:54:31;1032.4;;;3.6;52
74437;BME280;62868;52.360;30.424;2024-03-02T20:59:35;1032.4;;;3.5;52.1
74437;BME280;62868;52.360;30.424;2024-03-02T21:05:00;1032.3;;;3.4;52.4
74437;BME280;62868;52.360;30.424;2024-03-02T21:09:21;1032.3;;;3.4;52.4
74437;BME280;62868;52.360;30.424;2024-03-02T21:14:59;1032.3;;;3.3;52.7
74437;BME280;62868;52.360;30.424;2024-03-02T21:19:21;1032.3;;;3.3;52.9
74437;BME280;62868;52.360;30.424;2024-03-02T21:24:49;1032.2;;;3.2;52.9
74437;BME280;62868;52.360;30.424;2024-03-02T21:29:35;1032.2;;;3.2;53
74437;BME280;62868;52.360;30.424;2024-03-02T21:34:23;1032.2;;;3.2;53.2
74437;BME280;62868;52.360;30.424;2024-03-02T21:39:59;1032.2;;;3.1;53.4
74437;BME280;62868;52.360;30.424;2024-03-02T21:44:59;1032.2;;;3.1;53.4
74437;BME280;62868;52.360;30.424;2024-03-02T21:49:39;1032.3;;;3;53.6
74437;BME280;62868;52.360;30.424;2024-03-02T21:54:59;1032.2;;;3;53.7
74437;BME280;62868;52.360;30.424;2024-03-02T22:00:00;1032.2;;;2.9;53.9
74437;BME280;62868;52.360;30.424;2024-03-02T22:04:23;1032.1;;;2.9;54
74437;BME280;62868;52.360;30.424;2024-03-02T22:09:27;1032.2;;;2.8;54.1
74437;BME280;62868;52.360;30.424;2024-03-02T22:14:29;1032.1;;;2.8;54.2
74437;BME280;62868;52.360;30.424;2024-03-02T22:19:59;1032.1;;;2.7;54.3
74437;BME280;62868;52.360;30.424;2024-03-02T22:24:59;1032.1;;;2.6;54.5
74437;BME280;62868;52.360;30.424;2024-03-02T22:29:35;1032.1;;;2.5;54.7
74437;BME280;62868;52.360;30.424;2024-03-02T22:34:35;1032.1;;;2.5;54.8
74437;BME280;62868;52.360;30.424;2024-03-02T22:39:45;1032.1;;;2.4;54.9
74437;BME280;62868;52.360;30.424;2024-03-02T22:44:35;1032.1;;;2.4;55
74437;BME280;62868;52.360;30.424;2024-03-02T22:49:59;1032.1;;;2.3;55.2
74437;BME280;62868;52.360;30.424;2024-03-02T22:54:49;1032.1;;;2.3;55.4
74437;BME280;62868;52.360;30.424;2024-03-02T22:59:48;1032;;;2.3;55.4
74437;BME280;62868;52.360;30.424;2024-03-02T23:04:33;1032;;;2.2;55.5
74437;BME280;62868;52.360;30.424;2024-03-02T23:09:37;1032;;;2.2;55.7
74437;BME280;62868;52.360;30.424;2024-03-02T23:14:47;1032.1;;;2.1;55.8
74437;BME280;62868;52.360;30.424;2024-03-02T23:19:33;1032.1;;;2;55.9
74437;BME280;62868;52.360;30.424;2024-03-02T23:24:27;1032.1;;;1.9;56.1
74437;BME280;62868;52.360;30.424;2024-03-02T23:29:51;1032.1;;;1.9;56.2
74437;BME280;62868;52.360;30.424;2024-03-02T23:34:57;1032.1;;;1.8;56.3
74437;BME280;62868;52.360;30.424;2024-03-02T23:39:34;1032.1;;;1.8;56.5
74437;BME280;62868;52.360;30.424;2024-03-02T23:44:47;1032.1;;;1.7;56.6
74437;BME280;62868;52.360;30.424;2024-03-02T23:49:21;1032.1;;;1.7;56.7
74437;BME280;62868;52.360;30.424;2024-03-02T23:54:27;1032;;;1.6;56.8
74437;BME280;62868;52.360;30.424;2024-03-02T23:59:39;1032;;;1.6;57
